Current Weather Conditions: station 44139

sailwx.info

Wind from 310 at 25 knots gusting 31

Wave height 3.7 meters (12 feet), 9 second period

Air temperature -2.8° C
Water temperature 3.4° C

Last reported at 2017-Mar-26 20:00 UTC.
Time now 2017-Mar-26 20:37 UTC

Location: N 44°12' W 057°06'.
View on Google Maps.

See reports from other nearby stations

  
Tides and Currents Weather Stations Pressure Air Temp Water Temp Dewpoint Dewpoint Depression Visibility Wind Speed Wind Dir Waves Ship Positions
date/time (UTC)wind fromknots sea level pressurealtimeterstation pressurevisibilityair tempwater tempwave heightnotes
2017-Mar-26 20:00 310 25 gusting 31 -2.8 3.4 3.7
2017-Mar-26 19:00 310 27 gusting 34 -3.0 3.3 3.4
2017-Mar-26 18:00 310 27 gusting 34 -3.3 3.1 3.6
2017-Mar-26 17:00 310 27 gusting 33 -3.2 3.0 3.6
2017-Mar-26 16:00 310 27 gusting 33 -3.3 2.9 3.7
2017-Mar-26 15:00 310 27 gusting 33 -3.1 2.5 3.7
2017-Mar-26 14:00 310 29 gusting 34 -2.8 2.4 3.5
2017-Mar-26 13:00 320 27 gusting 34 -2.6 2.4 3.3
2017-Mar-26 12:00 300 23 gusting 31 -3.4 2.2 3.4
2017-Mar-26 11:00 310 27 gusting 31 -2.3 2.2 3.3
2017-Mar-26 10:00 310 25 gusting 34 -2.0 2.4 3.2
2017-Mar-26 09:00 320 23 gusting 31 -1.7 2.6 3.2
2017-Mar-26 08:00 320 23 gusting 31 -1.5 2.6 3.6
2017-Mar-26 07:00 330 25 gusting 31 -1.3 2.7 3.4
2017-Mar-26 06:00 320 25 gusting 31 -1.3 2.9 3.6
2017-Mar-26 05:00 320 25 gusting 29 -1.2 3.0 3.3
2017-Mar-26 04:00 320 27 gusting 31 -1.1 3.0 3.1
2017-Mar-26 03:00 330 25 gusting 31 -0.4 2.8 2.9
2017-Mar-26 02:00 340 25 gusting 31 0.6 2.7 2.5
2017-Mar-26 01:00 340 25 gusting 31 0.8 2.5 2.4
2017-Mar-26 00:00 350 23 gusting 27 1.5 2.3 2.1
2017-Mar-25 23:00 340 23 gusting 29 1.8 2.4 1.8
2017-Mar-25 21:00 330 19 gusting 27 2.8 2.8 1.5
2017-Mar-25 20:00 020 5 gusting 7 3.9 3.1 1.5
2017-Mar-25 19:00 060 13 gusting 15 4.2 3.9 1.5
2017-Mar-25 18:00 020 13 gusting 15 4.5 4.5 1.5
2017-Mar-25 17:00 060 9 gusting 11 4.4 4.0 1.7
2017-Mar-25 16:00 120 9 gusting 11 4.7 4.1 1.6
2017-Mar-25 15:00 160 11 gusting 15 4.6 4.1 1.6
2017-Mar-25 14:00 170 15 gusting 17 4.3 4.1 1.6
2017-Mar-25 13:00 160 15 gusting 19 3.8 4.2 1.6
2017-Mar-25 12:00 170 19 gusting 21 2.8 4.2 1.4
2017-Mar-25 11:00 170 17 gusting 19 1.6 4.3 1.4
2017-Mar-25 10:00 180 11 gusting 15 1.1 4.3 1.6
2017-Mar-25 09:00 190 13 gusting 17 0.7 4.2 1.6
2017-Mar-25 08:00 210 13 gusting 17 0.7 4.2 1.7
2017-Mar-25 07:00 230 15 gusting 19 0.9 4.1 1.8
2017-Mar-25 06:00 240 19 gusting 23 0.9 4.2 1.7
2017-Mar-25 05:00 240 15 gusting 19 0.3 4.2 1.7
2017-Mar-25 04:00 240 15 gusting 19 -0.4 3.7 1.9
2017-Mar-25 03:00 240 15 gusting 19 -0.9 3.6 2.1
2017-Mar-25 02:00 260 13 gusting 17 -1.5 3.5 2.1
2017-Mar-25 01:00 260 15 gusting 21 -1.8 3.5 2.0
2017-Mar-25 00:00 260 15 gusting 19 -2.0 3.5 2.1
2017-Mar-24 23:00 280 17 gusting 25 -2.3 3.4 2.2
2017-Mar-24 22:00 280 15 gusting 21 -2.3 3.7 2.4
2017-Mar-24 21:00 290 15 gusting 19 -2.5 3.9 2.5
2017-Mar-24 20:00 300 17 gusting 23 -2.8 3.9 2.7